createdAt,value
2023-02-21T00:00:09.001Z,7.82
2023-02-21T00:01:03.183Z,7.84
2023-02-21T00:01:53.949Z,7.79
2023-02-21T00:02:46.793Z,7.81
2023-02-21T00:03:37.506Z,7.78
2023-02-21T00:04:28.111Z,7.79
2023-02-21T00:05:19.403Z,7.82
2023-02-21T00:06:10.836Z,7.81
2023-02-21T00:07:13.515Z,7.80
2023-02-21T00:08:06.100Z,7.73
2023-02-21T00:08:59.184Z,7.72
2023-02-21T00:09:49.431Z,7.71
2023-02-21T00:10:39.950Z,7.74
2023-02-21T00:11:30.306Z,7.71
2023-02-21T00:12:20.815Z,7.77
2023-02-21T00:13:11.619Z,7.73
2023-02-21T00:14:02.533Z,7.67
2023-02-21T00:14:57.181Z,7.69
2023-02-21T00:15:47.336Z,7.70
2023-02-21T00:16:37.405Z,7.67
2023-02-21T00:17:27.974Z,7.67
2023-02-21T00:18:19.507Z,7.66
2023-02-21T00:19:09.689Z,7.67
2023-02-21T00:20:00.119Z,7.66
2023-02-21T00:20:50.496Z,7.68
2023-02-21T00:21:41.620Z,7.65
2023-02-21T00:22:34.289Z,7.65
2023-02-21T00:23:34.877Z,7.67
2023-02-21T00:24:26.060Z,7.62
2023-02-21T00:25:16.815Z,7.58
2023-02-21T00:26:08.167Z,7.58
2023-02-21T00:26:59.639Z,7.59
2023-02-21T00:27:50.532Z,7.56
2023-02-21T00:28:44.590Z,7.56
2023-02-21T00:29:35.302Z,7.60
2023-02-21T00:30:26.636Z,7.60
2023-02-21T00:31:18.634Z,7.59
2023-02-21T00:32:09.964Z,7.60
2023-02-21T00:33:01.800Z,7.67
2023-02-21T00:33:57.302Z,7.62
2023-02-21T00:34:47.481Z,7.64
2023-02-21T00:35:37.562Z,7.59
2023-02-21T00:36:27.749Z,7.62
2023-02-21T00:37:18.420Z,7.63
2023-02-21T00:38:11.838Z,7.65
2023-02-21T00:39:02.374Z,7.67
2023-02-21T00:39:54.016Z,7.68
2023-02-21T00:40:44.573Z,7.67
2023-02-21T00:41:37.801Z,7.62
2023-02-21T00:42:33.958Z,7.65
2023-02-21T00:43:39.874Z,7.63
2023-02-21T00:44:30.441Z,7.63
2023-02-21T00:45:27.509Z,7.62
2023-02-21T00:46:17.790Z,7.62
2023-02-21T00:47:08.415Z,7.65
2023-02-21T00:48:00.845Z,7.61
2023-02-21T00:48:52.931Z,7.60
2023-02-21T00:49:44.618Z,7.57
2023-02-21T00:50:43.215Z,7.57
2023-02-21T00:51:40.612Z,7.57
2023-02-21T00:52:43.902Z,7.56
2023-02-21T00:53:37.229Z,7.61
2023-02-21T00:54:29.590Z,7.59
2023-02-21T00:55:22.172Z,7.64
2023-02-21T00:56:20.364Z,7.60
2023-02-21T00:57:22.376Z,7.58
2023-02-21T00:58:15.738Z,7.58
2023-02-21T00:59:07.116Z,7.53
2023-02-21T01:00:05.664Z,7.55
2023-02-21T01:00:56.345Z,7.56
2023-02-21T01:01:47.775Z,7.56
2023-02-21T01:02:40.903Z,7.57
2023-02-21T01:03:33.494Z,7.49
2023-02-21T01:05:29.158Z,7.49
2023-02-21T01:06:29.139Z,7.53
2023-02-21T01:07:26.948Z,7.53
2023-02-21T01:08:21.911Z,7.51
2023-02-21T01:09:18.330Z,7.44
2023-02-21T01:10:14.331Z,7.46
2023-02-21T01:11:06.425Z,7.44
2023-02-21T01:11:57.467Z,7.44
2023-02-21T01:13:02.095Z,7.46
2023-02-21T01:15:07.734Z,7.42
2023-02-21T01:15:58.514Z,7.40
2023-02-21T01:16:57.278Z,7.39
2023-02-21T01:17:49.712Z,7.38
2023-02-21T01:18:47.797Z,7.40
2023-02-21T01:19:38.872Z,7.36
2023-02-21T01:20:33.641Z,7.34
2023-02-21T01:21:24.230Z,7.32
2023-02-21T01:22:16.686Z,7.36
2023-02-21T01:25:21.414Z,7.24
2023-02-21T01:26:22.915Z,7.23
2023-02-21T01:28:22.363Z,7.26
2023-02-21T01:29:15.860Z,7.23
2023-02-21T01:30:18.170Z,7.22
2023-02-21T01:31:11.441Z,7.18
2023-02-21T01:32:02.189Z,7.20
2023-02-21T01:32:52.361Z,7.13
2023-02-21T01:33:42.442Z,7.16
2023-02-21T01:34:34.116Z,7.09
2023-02-21T01:35:26.354Z,7.11
2023-02-21T01:36:16.834Z,7.14
2023-02-21T01:37:07.366Z,7.07
2023-02-21T01:37:59.560Z,7.12
2023-02-21T01:38:55.054Z,7.07
2023-02-21T01:39:45.148Z,7.09
2023-02-21T01:40:36.370Z,7.13
2023-02-21T01:41:28.742Z,7.13
2023-02-21T01:42:22.390Z,7.09
2023-02-21T01:44:48.863Z,7.08
2023-02-21T01:45:51.621Z,7.13
2023-02-21T01:46:50.183Z,7.20
2023-02-21T01:47:51.426Z,7.18
2023-02-21T01:48:44.361Z,7.14
2023-02-21T01:49:40.987Z,7.19
2023-02-21T01:51:05.192Z,7.17
2023-02-21T01:52:00.452Z,7.19
2023-02-21T01:52:53.613Z,7.16
2023-02-21T01:53:49.309Z,7.17
2023-02-21T01:55:07.423Z,7.14
2023-02-21T01:57:09.032Z,7.15
2023-02-21T02:00:21.228Z,7.17
2023-02-21T02:01:23.448Z,7.12
2023-02-21T02:02:32.836Z,7.06
2023-02-21T02:03:37.555Z,7.09
2023-02-21T02:04:38.980Z,7.03
2023-02-21T02:05:33.457Z,7.06
2023-02-21T02:06:33.945Z,7.03
2023-02-21T02:07:33.554Z,7.02
2023-02-21T02:08:28.242Z,7.01
2023-02-21T02:09:34.379Z,6.97
2023-02-21T02:10:31.837Z,6.96
2023-02-21T02:11:37.362Z,6.98
2023-02-21T02:12:24.419Z,7.01
2023-02-21T02:13:20.617Z,6.99
2023-02-21T02:14:14.270Z,6.99
2023-02-21T02:15:16.949Z,6.99
2023-02-21T02:16:40.198Z,6.94
2023-02-21T02:17:39.942Z,6.98
2023-02-21T02:18:53.649Z,6.94
2023-02-21T02:20:09.774Z,6.93
2023-02-21T02:21:13.475Z,6.94
2023-02-21T02:22:13.572Z,6.94
2023-02-21T02:23:09.777Z,6.94
2023-02-21T02:23:49.166Z,6.97
2023-02-21T02:24:56.956Z,6.93
2023-02-21T02:26:13.418Z,6.90
2023-02-21T02:27:38.586Z,6.94
2023-02-21T02:28:50.838Z,6.91
2023-02-21T02:29:54.861Z,6.92
2023-02-21T02:31:28.792Z,6.89
2023-02-21T02:32:57.129Z,6.90
2023-02-21T02:34:16.094Z,6.90
2023-02-21T02:35:02.242Z,6.88
2023-02-21T02:35:46.396Z,6.89
2023-02-21T02:37:03.450Z,6.91
2023-02-21T02:38:17.194Z,6.92
2023-02-21T02:39:32.849Z,6.91
2023-02-21T02:40:51.868Z,6.89
2023-02-21T02:44:41.411Z,7.01
2023-02-21T02:46:20.783Z,6.99
2023-02-21T02:47:05.743Z,7.00
2023-02-21T02:49:15.471Z,7.01
2023-02-21T02:50:36.271Z,6.98
2023-02-21T02:52:11.548Z,6.98
2023-02-21T02:53:02.381Z,6.99
2023-02-21T02:54:22.104Z,6.99
2023-02-21T02:55:02.634Z,7.03
2023-02-21T03:05:15.575Z,7.04
2023-02-21T03:07:19.516Z,6.99
2023-02-21T03:08:13.085Z,6.99
2023-02-21T03:09:14.750Z,6.98
2023-02-21T03:10:17.931Z,7.02
2023-02-21T03:11:16.546Z,7.07
2023-02-21T03:12:02.721Z,7.01
2023-02-21T03:13:00.066Z,7.01
2023-02-21T03:13:44.383Z,7.02
2023-02-21T03:14:20.818Z,6.99
2023-02-21T03:15:17.666Z,7.05
2023-02-21T03:16:13.274Z,6.98
2023-02-21T03:16:55.265Z,6.97
2023-02-21T03:17:34.127Z,7.07
2023-02-21T06:04:08.048Z,7.73
2023-02-21T06:04:39.837Z,7.74
2023-02-21T06:05:12.379Z,7.72
2023-02-21T06:05:44.231Z,7.68
2023-02-21T06:06:17.006Z,7.72
2023-02-21T06:06:48.938Z,7.69
2023-02-21T06:07:20.701Z,7.70
2023-02-21T06:07:52.702Z,7.70
2023-02-21T06:08:24.435Z,7.65
2023-02-21T06:08:56.166Z,7.65
2023-02-21T06:09:27.894Z,7.67
2023-02-21T06:09:59.682Z,7.70
2023-02-21T06:10:31.381Z,7.69
2023-02-21T06:11:03.229Z,7.70
2023-02-21T06:11:40.531Z,7.73
2023-02-21T06:12:12.251Z,7.72
2023-02-21T06:12:43.990Z,7.74
2023-02-21T06:13:15.738Z,7.73
2023-02-21T06:13:50.748Z,7.74
2023-02-21T06:14:22.420Z,7.76
2023-02-21T06:14:54.108Z,7.77
2023-02-21T06:15:26.106Z,7.71
2023-02-21T06:15:57.844Z,7.72
2023-02-21T06:16:36.612Z,7.76
2023-02-21T06:17:08.314Z,7.74
2023-02-21T06:17:41.204Z,7.78
2023-02-21T06:18:14.816Z,7.80
2023-02-21T06:18:51.466Z,7.76
2023-02-21T06:19:24.355Z,7.82
2023-02-21T06:19:57.330Z,7.82
2023-02-21T06:20:29.024Z,7.81
2023-02-21T06:21:01.457Z,7.86
2023-02-21T06:21:35.726Z,7.85
2023-02-21T06:22:10.646Z,7.87
2023-02-21T06:22:43.491Z,7.87
2023-02-21T06:23:15.746Z,7.88
2023-02-21T06:23:47.782Z,7.90
2023-02-21T06:24:19.633Z,7.87
2023-02-21T06:24:52.200Z,7.89
2023-02-21T06:25:24.281Z,7.96
2023-02-21T06:25:57.464Z,7.94
2023-02-21T06:26:29.368Z,7.96
2023-02-21T06:27:01.510Z,7.99
2023-02-21T06:27:33.210Z,7.99
2023-02-21T06:28:05.058Z,7.96
2023-02-21T06:28:36.822Z,8.00
2023-02-21T06:29:08.613Z,8.00
2023-02-21T06:30:36.194Z,8.05
2023-02-21T06:31:08.681Z,8.04
2023-02-21T06:31:40.930Z,8.04
2023-02-21T06:32:13.977Z,8.06
2023-02-21T06:32:50.417Z,8.07
2023-02-21T06:33:23.092Z,8.06
2023-02-21T06:33:54.804Z,8.06
2023-02-21T06:34:27.237Z,8.09
2023-02-21T06:34:58.948Z,8.14
2023-02-21T06:35:30.690Z,8.17
2023-02-21T06:36:12.572Z,8.22
2023-02-21T06:36:45.935Z,8.30
2023-02-21T06:37:19.194Z,8.35
2023-02-21T06:37:50.911Z,8.45
2023-02-21T06:38:22.977Z,8.56
2023-02-21T06:38:56.635Z,8.70
2023-02-21T06:39:28.385Z,8.82
2023-02-21T06:40:00.354Z,8.88
2023-02-21T06:40:32.041Z,8.95
2023-02-21T06:41:09.545Z,9.13
2023-02-21T06:41:41.238Z,9.41
2023-02-21T06:42:16.891Z,9.70
2023-02-21T06:42:50.505Z,9.98
2023-02-21T06:43:22.270Z,10.31
2023-02-21T06:43:55.591Z,10.64
2023-02-21T06:44:28.907Z,11.03
2023-02-21T06:45:00.954Z,11.40
2023-02-21T06:45:32.683Z,11.87
2023-02-21T06:46:05.191Z,12.23
2023-02-21T06:46:40.118Z,12.42
2023-02-21T06:47:12.036Z,12.70
2023-02-21T06:47:43.700Z,12.75
2023-02-21T06:48:17.325Z,13.07
2023-02-21T06:48:49.849Z,13.51
2023-02-21T06:49:22.105Z,14.01
2023-02-21T06:49:54.079Z,14.52
2023-02-21T06:50:27.102Z,14.75
2023-02-21T06:50:59.540Z,14.96
2023-02-21T06:51:38.481Z,15.14
2023-02-21T06:52:11.367Z,15.34
2023-02-21T06:52:43.065Z,15.52
2023-02-21T06:53:15.392Z,15.80
2023-02-21T06:53:50.801Z,16.20
2023-02-21T06:54:22.556Z,16.30
2023-02-21T06:54:54.974Z,16.53
2023-02-21T06:55:26.649Z,16.91
2023-02-21T06:56:00.502Z,17.13
2023-02-21T06:56:32.554Z,17.41
2023-02-21T06:57:06.720Z,17.22
2023-02-21T06:57:38.628Z,17.33
2023-02-21T06:58:10.945Z,17.36
2023-02-21T06:58:44.787Z,17.41
2023-02-21T06:59:16.598Z,16.93
2023-02-21T06:59:48.361Z,16.98
2023-02-21T07:00:20.232Z,16.95
2023-02-21T07:00:51.905Z,17.12
2023-02-21T07:01:26.024Z,17.15
2023-02-21T07:01:57.919Z,17.20
2023-02-21T07:02:29.657Z,17.56
2023-02-21T07:03:01.361Z,17.85
2023-02-21T07:03:33.028Z,17.59
2023-02-21T07:04:04.731Z,17.97
2023-02-21T07:04:36.399Z,18.29
2023-02-21T07:05:08.772Z,18.60
2023-02-21T07:05:40.552Z,18.92
2023-02-21T07:06:12.439Z,19.05
2023-02-21T07:06:44.110Z,19.14
2023-02-21T07:07:16.700Z,19.18
2023-02-21T07:07:49.837Z,19.59
2023-02-21T07:08:21.882Z,19.55
2023-02-21T07:08:53.563Z,19.56
2023-02-21T07:09:25.350Z,19.66
2023-02-21T07:09:57.072Z,19.96
2023-02-21T07:10:29.471Z,20.33
2023-02-21T07:11:05.102Z,20.26
2023-02-21T07:11:36.808Z,20.48
2023-02-21T07:12:08.960Z,20.62
2023-02-21T07:12:40.639Z,20.61
2023-02-21T07:13:12.395Z,20.67
2023-02-21T07:13:51.960Z,20.62
2023-02-21T07:14:23.656Z,20.19
2023-02-21T07:14:55.441Z,19.91
2023-02-21T07:15:27.257Z,20.26
2023-02-21T07:16:00.032Z,20.42
2023-02-21T07:16:31.838Z,20.69
2023-02-21T07:17:03.515Z,20.70
2023-02-21T07:17:35.229Z,20.53
2023-02-21T07:18:06.901Z,20.36
2023-02-21T07:18:38.555Z,20.18
2023-02-21T07:19:47.568Z,19.73
2023-02-21T07:20:19.363Z,19.57
2023-02-21T07:20:51.120Z,19.60
2023-02-21T07:21:23.364Z,19.87
2023-02-21T07:21:55.256Z,19.90
2023-02-21T07:22:26.992Z,20.09
2023-02-21T07:22:58.951Z,19.86
2023-02-21T07:23:30.837Z,20.25
2023-02-21T07:24:02.661Z,20.33
2023-02-21T07:24:37.079Z,20.42
2023-02-21T07:25:08.800Z,20.49
2023-02-21T07:25:40.480Z,20.46
2023-02-21T07:26:13.045Z,20.54
2023-02-21T07:26:44.896Z,20.76
2023-02-21T07:27:16.598Z,20.66
2023-02-21T07:27:49.611Z,21.07
2023-02-21T07:28:21.411Z,21.60
2023-02-21T07:28:54.371Z,21.94
2023-02-21T07:29:26.937Z,21.87
2023-02-21T07:29:58.743Z,21.51
2023-02-21T07:30:31.818Z,21.50
2023-02-21T07:31:05.062Z,22.04
2023-02-21T07:31:37.408Z,22.19
2023-02-21T07:32:12.044Z,21.65
2023-02-21T07:33:17.500Z,21.84
2023-02-21T07:33:49.193Z,21.91
2023-02-21T07:34:22.385Z,22.69
2023-02-21T07:34:55.352Z,22.95
2023-02-21T07:35:27.196Z,23.15
2023-02-21T07:35:58.886Z,22.70
2023-02-21T07:36:31.072Z,23.12
2023-02-21T07:37:03.343Z,23.26
2023-02-21T07:37:35.215Z,23.41
2023-02-21T07:38:07.490Z,23.41
2023-02-21T07:38:39.239Z,23.24
2023-02-21T07:39:10.932Z,23.62
2023-02-21T07:39:42.608Z,23.77
2023-02-21T07:40:14.351Z,24.16
2023-02-21T07:40:46.191Z,24.33
2023-02-21T07:41:19.920Z,24.14
2023-02-21T07:41:57.988Z,23.46
2023-02-21T07:42:31.296Z,23.14
2023-02-21T07:43:03.008Z,23.14
2023-02-21T07:43:34.916Z,23.18
2023-02-21T07:44:07.905Z,23.44
2023-02-21T07:44:39.649Z,23.55
2023-02-21T07:45:12.359Z,23.87
2023-02-21T07:45:44.378Z,23.60
2023-02-21T07:46:17.552Z,22.52
2023-02-21T07:46:49.340Z,22.94
2023-02-21T07:47:21.122Z,23.42
2023-02-21T07:47:53.490Z,22.54
2023-02-21T07:48:25.665Z,22.92
2023-02-21T07:48:58.813Z,24.01
2023-02-21T07:49:30.564Z,24.21
2023-02-21T07:50:02.352Z,24.05
2023-02-21T07:50:34.101Z,24.48
2023-02-21T07:51:08.264Z,24.03
2023-02-21T07:51:40.123Z,24.18
2023-02-21T07:52:11.851Z,23.69
2023-02-21T07:52:43.652Z,23.40
2023-02-21T07:53:16.501Z,23.07
2023-02-21T07:53:48.299Z,23.94
2023-02-21T07:54:20.100Z,23.99
2023-02-21T07:54:51.809Z,24.08
2023-02-21T07:55:23.555Z,24.13
2023-02-21T07:55:55.309Z,24.65
2023-02-21T07:56:27.132Z,24.50
2023-02-21T07:57:06.134Z,24.09
2023-02-21T07:57:39.059Z,23.77
2023-02-21T07:58:15.883Z,23.64
2023-02-21T07:58:50.079Z,23.20
2023-02-21T07:59:21.915Z,23.17
2023-02-21T07:59:54.504Z,23.77
2023-02-21T08:00:29.104Z,24.08
2023-02-21T08:01:56.301Z,24.03
2023-02-21T08:02:28.083Z,23.82
2023-02-21T08:03:00.144Z,24.11
2023-02-21T08:03:32.206Z,24.38
2023-02-21T08:04:04.660Z,24.09
2023-02-21T08:04:36.645Z,24.40
2023-02-21T08:05:09.818Z,24.74
2023-02-21T08:05:41.558Z,24.92
2023-02-21T08:06:13.329Z,25.36
2023-02-21T08:06:45.004Z,25.72
2023-02-21T08:07:16.827Z,25.89
2023-02-21T08:07:48.567Z,25.49
2023-02-21T08:08:20.269Z,25.64
2023-02-21T08:08:53.082Z,25.74
2023-02-21T08:09:26.137Z,25.07
2023-02-21T08:09:57.930Z,25.33
2023-02-21T08:10:29.721Z,25.66
2023-02-21T08:11:01.749Z,25.50
2023-02-21T08:11:36.727Z,25.30
2023-02-21T08:12:08.767Z,25.76
2023-02-21T08:12:40.442Z,26.06
2023-02-21T08:13:12.113Z,26.08
2023-02-21T08:13:43.824Z,26.11
2023-02-21T08:14:15.621Z,25.83
2023-02-21T08:14:48.660Z,26.05
2023-02-21T08:15:21.125Z,26.13
2023-02-21T08:15:52.916Z,26.06
2023-02-21T08:16:24.844Z,25.01
2023-02-21T08:16:56.729Z,25.43
2023-02-21T08:17:28.410Z,25.27
2023-02-21T08:18:00.150Z,24.94
2023-02-21T08:18:31.817Z,25.12
2023-02-21T08:19:05.582Z,25.17
2023-02-21T08:19:37.554Z,25.23
2023-02-21T08:20:09.775Z,25.53
2023-02-21T08:20:41.519Z,25.74
2023-02-21T08:21:13.491Z,25.82
2023-02-21T08:21:48.940Z,25.94
2023-02-21T08:22:20.691Z,26.01
2023-02-21T08:22:52.427Z,25.80
2023-02-21T08:23:24.498Z,25.83
2023-02-21T08:23:56.232Z,25.88
2023-02-21T08:24:27.952Z,26.14
2023-02-21T08:24:59.789Z,26.35
2023-02-21T08:25:31.459Z,26.47
2023-02-21T08:26:04.807Z,26.26
2023-02-21T08:26:36.573Z,26.09
2023-02-21T08:27:10.873Z,25.92
2023-02-21T08:27:43.872Z,25.76
2023-02-21T08:28:17.977Z,26.08
2023-02-21T08:28:59.493Z,26.31
2023-02-21T08:30:52.918Z,27.31
2023-02-21T08:31:27.270Z,26.74
2023-02-21T08:32:51.795Z,25.19
2023-02-21T08:33:23.593Z,23.77
2023-02-21T08:33:56.118Z,23.71
2023-02-21T08:34:30.072Z,23.93
2023-02-21T08:35:03.691Z,24.85
2023-02-21T08:35:35.430Z,25.28
2023-02-21T08:36:08.180Z,25.97
2023-02-21T08:36:42.606Z,25.80
2023-02-21T08:37:20.343Z,26.02
2023-02-21T08:37:52.041Z,26.31
2023-02-21T08:38:23.762Z,25.62
2023-02-21T08:38:55.452Z,26.33
2023-02-21T08:39:30.211Z,26.92
2023-02-21T08:40:04.097Z,27.06
2023-02-21T08:40:35.870Z,26.94
2023-02-21T08:41:07.594Z,27.15
2023-02-21T08:41:45.057Z,27.33
2023-02-21T08:42:17.044Z,27.35
2023-02-21T08:42:50.880Z,27.60
2023-02-21T08:43:22.603Z,27.76
2023-02-21T08:43:54.305Z,27.91
2023-02-21T08:44:25.979Z,27.92
2023-02-21T08:44:57.733Z,27.91
2023-02-21T08:45:30.516Z,27.73
2023-02-21T08:46:03.043Z,27.31
2023-02-21T08:46:35.665Z,27.94
2023-02-21T08:47:07.617Z,27.76
2023-02-21T08:47:39.300Z,27.98
2023-02-21T08:48:10.976Z,27.71
2023-02-21T08:48:42.628Z,28.31
2023-02-21T08:49:14.875Z,27.84
2023-02-21T08:49:48.073Z,28.14
2023-02-21T08:50:22.391Z,28.01
2023-02-21T08:50:54.190Z,28.33
2023-02-21T08:51:27.608Z,27.62
2023-02-21T08:51:59.294Z,26.90
2023-02-21T08:52:31.026Z,27.61
2023-02-21T08:53:02.726Z,27.80
2023-02-21T08:53:34.380Z,27.84
2023-02-21T08:54:06.908Z,27.12
2023-02-21T08:54:38.682Z,27.89
2023-02-21T08:55:11.466Z,27.63
2023-02-21T08:55:44.660Z,27.83
2023-02-21T08:56:22.390Z,28.40
2023-02-21T08:57:03.404Z,28.30
2023-02-21T08:57:42.242Z,28.59
2023-02-21T08:58:18.359Z,28.79
2023-02-21T08:58:51.689Z,29.24
2023-02-21T09:00:30.975Z,29.51
2023-02-21T09:01:12.695Z,28.91
2023-02-21T09:01:47.161Z,28.51
2023-02-21T09:03:41.868Z,29.34
2023-02-21T09:04:14.816Z,28.75
2023-02-21T09:04:47.019Z,28.59
2023-02-21T09:05:24.517Z,28.87
2023-02-21T09:05:56.428Z,27.39
2023-02-21T09:06:28.233Z,27.03
2023-02-21T09:06:59.941Z,25.48
2023-02-21T09:07:33.503Z,24.97
2023-02-21T09:08:05.442Z,26.23
2023-02-21T09:08:38.681Z,26.58
2023-02-21T09:09:10.394Z,27.21
2023-02-21T09:09:42.123Z,27.49
2023-02-21T09:10:13.943Z,27.79
2023-02-21T09:10:47.936Z,27.95
2023-02-21T09:11:19.739Z,27.92
2023-02-21T09:11:51.423Z,28.28
2023-02-21T09:12:23.202Z,28.14
2023-02-21T09:12:54.934Z,28.54
2023-02-21T09:13:27.865Z,28.76
2023-02-21T09:13:59.622Z,28.66
2023-02-21T09:14:31.416Z,28.90
2023-02-21T09:15:03.325Z,27.43
2023-02-21T09:15:35.112Z,27.05
2023-02-21T09:16:07.054Z,28.13
2023-02-21T09:16:39.208Z,28.98
2023-02-21T09:17:13.927Z,28.47
2023-02-21T09:17:46.142Z,28.74
2023-02-21T09:18:17.858Z,28.42
2023-02-21T09:19:01.404Z,28.54
2023-02-21T09:19:34.450Z,29.08
2023-02-21T09:20:08.921Z,29.02
2023-02-21T09:20:42.425Z,28.43
2023-02-21T09:21:14.296Z,28.59
2023-02-21T09:21:48.153Z,28.64
2023-02-21T09:22:20.196Z,29.11
2023-02-21T09:22:52.301Z,29.92
2023-02-21T09:23:27.329Z,29.46
2023-02-21T09:23:59.518Z,29.59
2023-02-21T09:24:31.927Z,28.85
2023-02-21T09:25:04.537Z,29.56
2023-02-21T09:25:36.230Z,29.68
2023-02-21T09:26:07.978Z,29.85
2023-02-21T09:26:39.689Z,29.50
2023-02-21T09:27:12.428Z,29.18
2023-02-21T09:27:44.122Z,29.36
2023-02-21T09:28:16.888Z,29.21
2023-02-21T09:28:48.593Z,30.03
2023-02-21T09:29:26.549Z,30.05
2023-02-21T09:29:59.566Z,30.22
2023-02-21T09:30:32.036Z,29.68
2023-02-21T09:31:03.858Z,30.58
2023-02-21T09:31:35.580Z,30.57
2023-02-21T09:32:07.304Z,31.06
2023-02-21T09:32:40.128Z,31.43
2023-02-21T09:33:12.864Z,31.49
2023-02-21T09:33:45.400Z,31.32
2023-02-21T09:34:17.342Z,31.15
2023-02-21T09:34:49.015Z,31.00
2023-02-21T09:35:20.770Z,29.81
2023-02-21T09:35:54.078Z,30.63
2023-02-21T09:36:25.857Z,30.64
2023-02-21T09:36:57.691Z,29.95
2023-02-21T09:37:30.097Z,29.80
2023-02-21T09:38:03.607Z,30.06
2023-02-21T09:38:35.497Z,30.28
2023-02-21T09:39:08.538Z,30.56
2023-02-21T09:39:40.438Z,29.69
2023-02-21T09:40:34.393Z,29.02
2023-02-21T09:41:09.611Z,29.29
2023-02-21T09:41:45.038Z,29.27
2023-02-21T09:42:18.828Z,29.23
2023-02-21T09:42:54.895Z,29.65
2023-02-21T09:43:43.410Z,28.67
2023-02-21T09:44:27.451Z,29.68
2023-02-21T09:44:59.861Z,30.45
2023-02-21T09:45:34.633Z,30.75
2023-02-21T09:46:16.495Z,30.95
2023-02-21T09:46:53.078Z,31.03
2023-02-21T09:47:45.439Z,30.93
2023-02-21T09:48:23.187Z,30.89
2023-02-21T09:48:55.262Z,31.17
2023-02-21T09:49:42.069Z,31.20
2023-02-21T09:50:16.589Z,31.50
2023-02-21T09:50:53.366Z,31.71
2023-02-21T09:51:26.039Z,31.00
2023-02-21T09:52:01.323Z,30.36
2023-02-21T09:52:37.742Z,29.65
2023-02-21T09:53:16.466Z,30.79
2023-02-21T09:53:49.299Z,30.44
2023-02-21T09:54:23.700Z,30.33
2023-02-21T09:54:58.964Z,29.65
2023-02-21T09:55:36.336Z,29.52
2023-02-21T09:56:21.468Z,30.18
2023-02-21T09:56:54.845Z,30.51
2023-02-21T09:57:26.713Z,30.31
2023-02-21T09:57:58.425Z,30.19
2023-02-21T09:58:30.433Z,30.82
2023-02-21T09:59:02.141Z,31.16
2023-02-21T09:59:36.109Z,31.45
2023-02-21T10:00:24.741Z,31.21
2023-02-21T10:01:07.656Z,30.70
2023-02-21T10:01:39.352Z,30.46
2023-02-21T10:02:11.131Z,30.77
2023-02-21T10:02:59.440Z,30.22
2023-02-21T10:03:50.969Z,31.06
2023-02-21T10:05:12.190Z,30.54
2023-02-21T10:05:50.884Z,30.10
2023-02-21T10:06:36.980Z,30.62
2023-02-21T10:07:17.176Z,30.98
2023-02-21T10:07:54.329Z,30.86
2023-02-21T10:08:42.639Z,30.77
2023-02-21T10:09:14.271Z,31.38
2023-02-21T10:10:05.264Z,31.07
2023-02-21T10:10:58.625Z,30.24
2023-02-21T10:12:04.031Z,30.60
2023-02-21T10:13:04.901Z,30.82
2023-02-21T10:13:48.579Z,31.50
2023-02-21T10:14:52.519Z,31.01
2023-02-21T10:15:49.445Z,31.00
2023-02-21T10:16:28.521Z,30.76
2023-02-21T10:17:19.176Z,30.87
2023-02-21T10:18:04.585Z,30.99
2023-02-21T10:18:49.706Z,31.59
2023-02-21T10:19:31.843Z,31.61
2023-02-21T10:20:15.383Z,31.78
2023-02-21T10:20:53.205Z,32.28
2023-02-21T10:21:35.925Z,31.96
2023-02-21T10:22:34.656Z,31.84
2023-02-21T10:23:35.335Z,32.27
2023-02-21T10:24:14.143Z,31.27
2023-02-21T10:24:47.068Z,31.46
2023-02-21T10:25:31.612Z,31.71
2023-02-21T10:26:11.142Z,31.39
2023-02-21T10:27:08.184Z,30.41
2023-02-21T10:27:42.290Z,31.59
2023-02-21T10:28:23.509Z,31.42
2023-02-21T10:28:57.573Z,31.49
2023-02-21T10:33:38.523Z,29.63
2023-02-21T10:34:47.398Z,30.32
2023-02-21T10:35:20.816Z,29.99
2023-02-21T10:35:55.189Z,30.14
2023-02-21T10:36:28.526Z,29.27
2023-02-21T10:37:51.421Z,28.77
2023-02-21T10:39:15.146Z,29.00
2023-02-21T10:41:28.073Z,27.58
2023-02-21T10:42:55.414Z,26.17
2023-02-21T10:43:42.009Z,25.99
2023-02-21T10:44:27.063Z,24.69
2023-02-21T10:44:59.124Z,24.72
2023-02-21T10:45:36.906Z,24.39
2023-02-21T10:46:11.338Z,24.43
2023-02-21T10:47:01.701Z,23.57
2023-02-21T10:48:00.723Z,23.46
2023-02-21T10:48:37.682Z,23.30
2023-02-21T10:49:24.593Z,22.74
2023-02-21T10:50:12.151Z,22.87
2023-02-21T10:50:51.691Z,22.74
2023-02-21T10:51:32.232Z,22.81
2023-02-21T10:52:10.463Z,22.61
2023-02-21T10:55:32.341Z,23.16
2023-02-21T10:56:20.451Z,22.53
2023-02-21T10:56:56.932Z,22.16
2023-02-21T10:57:41.273Z,21.93
2023-02-21T10:58:27.685Z,21.64
2023-02-21T10:59:06.296Z,21.25
2023-02-21T10:59:42.933Z,21.34
2023-02-21T11:00:35.056Z,21.56
2023-02-21T11:01:18.972Z,21.48
2023-02-21T11:01:52.733Z,21.39
2023-02-21T11:02:40.350Z,22.25
2023-02-21T11:03:21.013Z,23.27
2023-02-21T11:03:56.946Z,23.63
2023-02-21T11:04:35.149Z,24.41
2023-02-21T11:05:20.838Z,24.79
2023-02-21T11:05:57.729Z,25.00
2023-02-21T11:06:39.664Z,25.48
2023-02-21T11:07:16.039Z,25.55
2023-02-21T11:08:09.733Z,25.80
2023-02-21T11:08:44.675Z,25.21
2023-02-21T11:09:28.209Z,24.77
2023-02-21T11:09:59.883Z,24.53
2023-02-21T11:10:37.844Z,24.34
2023-02-21T11:11:11.008Z,23.63
2023-02-21T11:11:42.760Z,24.05
2023-02-21T11:12:19.950Z,23.48
2023-02-21T11:13:07.755Z,23.25
2023-02-21T11:13:43.164Z,23.02
2023-02-21T11:14:26.145Z,23.44
2023-02-21T11:14:57.784Z,23.18
2023-02-21T11:15:29.562Z,23.26
2023-02-21T11:16:17.348Z,23.37
2023-02-21T11:17:13.810Z,22.73
2023-02-21T11:17:47.052Z,22.28
2023-02-21T11:18:27.485Z,21.92
2023-02-21T11:19:07.239Z,21.62
2023-02-21T11:19:48.813Z,21.93
2023-02-21T11:20:23.560Z,21.95
2023-02-21T11:20:56.220Z,21.86
2023-02-21T11:21:36.149Z,21.91
2023-02-21T11:22:09.402Z,21.97
2023-02-21T11:22:47.507Z,21.98
2023-02-21T11:23:26.742Z,22.21
2023-02-21T11:24:05.599Z,22.23
2023-02-21T11:24:52.093Z,22.49
2023-02-21T11:25:30.122Z,22.89
2023-02-21T11:26:11.751Z,23.37
2023-02-21T11:26:54.477Z,23.67
2023-02-21T11:27:31.196Z,23.85
2023-02-21T11:28:20.935Z,23.80
2023-02-21T11:28:56.548Z,23.63
2023-02-21T11:29:30.515Z,23.91
2023-02-21T11:30:41.955Z,24.21
2023-02-21T11:31:29.021Z,24.40
2023-02-21T11:32:33.004Z,24.22
2023-02-21T11:33:10.101Z,24.16
2023-02-21T11:33:52.578Z,24.47
2023-02-21T11:34:30.948Z,24.92
2023-02-21T11:35:32.610Z,24.95
2023-02-21T11:36:20.336Z,25.00
2023-02-21T11:36:56.554Z,25.26
2023-02-21T11:37:29.649Z,25.24
2023-02-21T11:38:34.876Z,25.33
2023-02-21T11:39:28.177Z,25.54
2023-02-21T11:40:02.267Z,25.98
2023-02-21T11:40:51.346Z,26.51
2023-02-21T11:41:44.741Z,26.14
2023-02-21T11:42:33.273Z,26.57
2023-02-21T11:43:21.855Z,27.21
2023-02-21T11:43:55.113Z,27.82
2023-02-21T11:44:35.087Z,28.39
2023-02-21T11:45:15.713Z,26.98
2023-02-21T11:46:00.056Z,26.85
2023-02-21T11:46:34.442Z,28.04
2023-02-21T11:47:11.704Z,28.91
2023-02-21T11:47:51.652Z,29.56
2023-02-21T11:48:31.303Z,29.18
2023-02-21T11:49:24.429Z,29.89
2023-02-21T11:50:15.704Z,30.06
2023-02-21T11:50:53.708Z,30.62
2023-02-21T11:51:46.717Z,30.85
2023-02-21T11:52:45.564Z,29.81
2023-02-21T11:53:41.778Z,28.19
2023-02-21T11:54:14.109Z,28.71
2023-02-21T11:54:45.982Z,28.99
2023-02-21T11:55:21.906Z,28.01
2023-02-21T11:56:07.031Z,28.32
2023-02-21T11:56:54.524Z,29.95
2023-02-21T11:57:45.725Z,30.49
2023-02-21T11:59:01.846Z,30.49
2023-02-21T11:59:52.135Z,31.35
2023-02-21T12:00:45.348Z,31.46
2023-02-21T12:01:27.797Z,30.83
2023-02-21T12:02:25.072Z,30.35
2023-02-21T12:02:59.624Z,30.51
2023-02-21T12:03:36.070Z,30.65
2023-02-21T12:04:27.679Z,30.80
2023-02-21T12:05:24.523Z,31.37
2023-02-21T12:06:02.579Z,31.77
2023-02-21T12:07:03.295Z,30.88
2023-02-21T12:07:42.716Z,31.14
2023-02-21T12:08:52.698Z,31.35
2023-02-21T12:09:25.116Z,31.15
2023-02-21T12:10:09.155Z,31.19
2023-02-21T12:11:18.684Z,31.03
2023-02-21T12:12:09.558Z,31.09
2023-02-21T12:12:47.286Z,31.04
2023-02-21T12:14:14.298Z,30.42
2023-02-21T12:17:16.772Z,30.85
2023-02-21T12:18:06.924Z,31.00
2023-02-21T12:18:57.190Z,31.60
2023-02-21T12:19:54.524Z,31.33
2023-02-21T12:20:28.791Z,30.99
2023-02-21T12:21:19.088Z,31.53
2023-02-21T12:22:28.849Z,31.16
2023-02-21T12:23:03.074Z,30.24
2023-02-21T12:23:47.432Z,30.00
2023-02-21T12:24:39.803Z,30.30
2023-02-21T12:25:30.129Z,30.63
2023-02-21T12:26:04.856Z,30.72
2023-02-21T12:27:11.877Z,30.25
2023-02-21T12:28:13.991Z,31.19
2023-02-21T12:29:41.296Z,29.80
2023-02-21T12:30:49.885Z,30.46